Time;durP1;ratioP1;P1;durP2;ratioP2;P2;SDS_P1;SDS_P2;PMS_P1;PMS_P2;Temp;Humidity;BMP_temperature;BMP_pressure;BME280_temperature;BME280_humidity;BME280_pressure;Samples;Min_cycle;Max_cycle;Signal;HPM_P1;HPM_P2
2022/10/22 00:01:31;;;;;;;12.02;4.57;;;;;;;13.11;100.00;100847.41;5068953;28;20086;-69
2022/10/22 00:03:56;;;;;;;8.05;4.47;;;;;;;13.14;100.00;100841.97;5068874;28;20024;-65
2022/10/22 00:06:22;;;;;;;12.18;4.43;;;;;;;13.13;100.00;100841.09;5068031;28;20020;-69
2022/10/22 00:08:47;;;;;;;12.27;4.32;;;;;;;13.11;100.00;100840.34;5068246;28;20062;-68
2022/10/22 00:11:14;;;;;;;12.85;4.65;;;;;;;13.20;100.00;100838.19;5067565;28;20041;-68
2022/10/22 00:13:40;;;;;;;12.95;4.75;;;;;;;13.22;100.00;100834.53;5067741;28;20020;-69
2022/10/22 00:16:06;;;;;;;13.25;5.20;;;;;;;13.28;100.00;100841.38;5050067;28;20028;-69
2022/10/22 00:18:31;;;;;;;13.10;5.47;;;;;;;13.34;100.00;100842.88;5068677;28;20091;-70
2022/10/22 00:20:57;;;;;;;10.68;4.82;;;;;;;13.37;100.00;100843.56;5068515;28;20042;-69
2022/10/22 00:23:22;;;;;;;9.63;4.70;;;;;;;13.35;100.00;100848.09;5067936;28;20043;-65
2022/10/22 00:25:47;;;;;;;10.82;4.85;;;;;;;13.40;100.00;100846.06;5068389;28;20028;-68
2022/10/22 00:28:13;;;;;;;9.40;4.43;;;;;;;13.42;100.00;100853.09;5068531;28;20051;-68
2022/10/22 00:30:39;;;;;;;9.38;4.63;;;;;;;13.44;100.00;100853.88;5068330;28;20035;-67
2022/10/22 00:33:04;;;;;;;13.15;4.90;;;;;;;13.49;100.00;100854.53;5067494;28;20655;-64
2022/10/22 00:35:29;;;;;;;13.20;4.80;;;;;;;13.52;100.00;100859.72;5067851;28;20374;-67
2022/10/22 00:37:55;;;;;;;14.10;5.10;;;;;;;13.59;100.00;100866.44;5067662;28;20094;-68
2022/10/22 00:40:20;;;;;;;17.20;5.47;;;;;;;13.63;100.00;100868.03;5067270;28;20017;-67
2022/10/22 00:42:45;;;;;;;11.35;5.25;;;;;;;13.64;100.00;100867.09;5066775;28;20032;-66
2022/10/22 00:45:11;;;;;;;16.98;5.20;;;;;;;13.70;100.00;100867.75;5033083;28;20024;-69
2022/10/22 00:47:40;;;;;;;13.77;5.40;;;;;;;13.77;100.00;100869.16;5067456;28;20020;-69
2022/10/22 00:50:10;;;;;;;17.80;5.22;;;;;;;13.85;100.00;100871.47;5049611;28;20024;-66
2022/10/22 00:52:35;;;;;;;16.33;4.70;;;;;;;13.86;100.00;100868.75;5067716;28;20029;-66
2022/10/22 00:55:00;;;;;;;9.13;4.28;;;;;;;13.93;100.00;100873.75;5050078;28;20012;-66
2022/10/22 00:57:26;;;;;;;11.82;4.15;;;;;;;13.98;100.00;100869.06;5048522;28;20477;-67
2022/10/22 00:59:53;;;;;;;13.65;5.00;;;;;;;13.99;100.00;100869.00;5049814;28;20033;-68
2022/10/22 01:02:18;;;;;;;12.07;4.75;;;;;;;13.98;100.00;100869.06;5117826;22;20019;-68
2022/10/22 01:04:44;;;;;;;8.00;3.95;;;;;;;14.04;100.00;100866.13;5068023;28;20044;-67
2022/10/22 01:07:15;;;;;;;10.40;4.38;;;;;;;14.00;100.00;100867.22;5066316;28;20112;-68
2022/10/22 01:09:46;;;;;;;11.82;4.03;;;;;;;14.02;100.00;100868.00;5049690;28;20021;-69
2022/10/22 01:12:18;;;;;;;11.98;4.20;;;;;;;14.02;100.00;100871.50;5067455;28;20111;-69
2022/10/22 01:14:46;;;;;;;9.60;3.80;;;;;;;14.05;100.00;100869.66;5049834;28;20058;-67
2022/10/22 01:17:31;;;;;;;13.00;4.50;;;;;;;14.01;100.00;100872.44;5047789;28;20024;-68
2022/10/22 01:20:44;;;;;;;12.50;4.05;;;;;;;14.06;100.00;100869.56;5067547;28;20030;-67
2022/10/22 01:23:32;;;;;;;15.20;4.32;;;;;;;14.02;100.00;100882.09;4984314;28;20034;-67
2022/10/22 01:26:15;;;;;;;12.50;4.30;;;;;;;13.99;100.00;100878.72;4969382;28;20077;-68
2022/10/22 01:28:46;;;;;;;14.95;4.28;;;;;;;13.98;100.00;100882.31;5044866;28;20466;-69
2022/10/22 01:31:12;;;;;;;14.38;4.03;;;;;;;14.02;100.00;100889.19;5066665;28;20394;-68
2022/10/22 01:33:38;;;;;;;8.57;3.70;;;;;;;14.01;100.00;100890.13;5049216;28;20029;-69
2022/10/22 01:36:03;;;;;;;17.00;4.47;;;;;;;14.04;100.00;100884.69;5049836;28;20028;-67
2022/10/22 01:38:29;;;;;;;10.30;3.85;;;;;;;14.02;100.00;100883.88;5066938;28;20028;-65
2022/10/22 01:40:55;;;;;;;11.35;4.10;;;;;;;13.97;100.00;100870.84;5061424;28;20033;-71
2022/10/22 01:43:20;;;;;;;20.35;4.07;;;;;;;13.96;100.00;100870.94;5029047;28;20025;-68
2022/10/22 01:45:49;;;;;;;11.52;3.83;;;;;;;13.85;100.00;100874.09;5046311;28;20499;-66
2022/10/22 01:48:33;;;;;;;14.43;4.78;;;;;;;13.80;100.00;100868.16;5046626;28;20055;-69
2022/10/22 01:51:34;;;;;;;10.50;3.45;;;;;;;13.77;100.00;100872.69;5047698;28;20041;-68
2022/10/22 01:54:10;;;;;;;17.63;4.10;;;;;;;13.69;100.00;100872.16;5040371;28;20112;-68
2022/10/22 01:56:53;;;;;;;9.18;4.22;;;;;;;13.67;100.00;100867.88;5067816;28;20102;-68
2022/10/22 01:59:43;;;;;;;13.30;4.03;;;;;;;13.69;100.00;100873.97;5066064;28;20038;-68
2022/10/22 02:02:53;;;;;;;6.65;3.03;;;;;;;13.62;100.00;100868.97;5065880;28;20378;-66
2022/10/22 02:05:25;;;;;;;13.73;3.75;;;;;;;13.69;100.00;100866.03;5042934;28;20051;-69
2022/10/22 02:07:59;;;;;;;16.00;4.15;;;;;;;13.67;100.00;100873.19;5065210;28;20024;-68
2022/10/22 02:10:26;;;;;;;12.18;3.80;;;;;;;13.61;100.00;100877.81;5066735;28;20028;-67
2022/10/22 02:12:53;;;;;;;13.23;3.92;;;;;;;13.64;100.00;100872.38;5030887;28;20025;-69
2022/10/22 02:15:20;;;;;;;12.25;3.30;;;;;;;13.62;100.00;100873.38;5066126;28;20120;-67
2022/10/22 02:17:46;;;;;;;14.27;3.67;;;;;;;13.56;100.00;100871.88;5048310;28;20028;-66
2022/10/22 02:20:22;;;;;;;7.53;3.10;;;;;;;13.55;100.00;100870.19;5066712;28;20021;-70
2022/10/22 02:22:47;;;;;;;7.63;3.45;;;;;;;13.56;100.00;100871.88;5066363;28;20028;-67
2022/10/22 02:25:13;;;;;;;7.43;3.42;;;;;;;13.55;100.00;100875.47;5066499;28;20025;-68
2022/10/22 02:27:47;;;;;;;10.60;3.70;;;;;;;13.51;100.00;100864.16;5066774;28;20013;-69
2022/10/22 02:30:14;;;;;;;10.40;3.90;;;;;;;13.50;100.00;100866.88;5048792;28;20037;-67
2022/10/22 02:32:42;;;;;;;10.38;3.60;;;;;;;13.46;100.00;100868.75;5048447;28;20020;-68
2022/10/22 02:35:10;;;;;;;12.00;3.83;;;;;;;13.48;100.00;100873.97;5066530;28;20075;-67
2022/10/22 02:37:35;;;;;;;9.23;3.38;;;;;;;13.47;100.00;100877.56;5049668;28;20297;-64
2022/10/22 02:40:01;;;;;;;9.68;3.60;;;;;;;13.43;100.00;100873.34;5069760;28;20439;-69
2022/10/22 02:42:27;;;;;;;11.23;4.00;;;;;;;13.43;100.00;100866.28;5050425;28;20028;-67
2022/10/22 02:44:53;;;;;;;15.02;3.72;;;;;;;13.38;100.00;100874.41;5052487;28;20021;-67
2022/10/22 02:47:18;;;;;;;13.75;4.00;;;;;;;13.37;100.00;100872.69;5067996;28;20031;-67
2022/10/22 02:49:44;;;;;;;13.93;3.88;;;;;;;13.41;100.00;100868.13;5070298;28;20036;-69
2022/10/22 02:52:09;;;;;;;19.52;4.22;;;;;;;13.41;100.00;100876.06;5069202;28;20033;-67
2022/10/22 02:54:34;;;;;;;9.63;3.25;;;;;;;13.45;100.00;100880.28;5069585;28;20082;-66
2022/10/22 02:57:00;;;;;;;8.23;3.85;;;;;;;13.49;100.00;100878.38;5071149;28;20021;-69
2022/10/22 02:59:25;;;;;;;15.88;4.18;;;;;;;13.48;100.00;100866.03;5069100;28;20024;-68
2022/10/22 03:01:50;;;;;;;12.05;3.70;;;;;;;13.45;100.00;100874.16;5034419;28;20059;-67
2022/10/22 03:04:15;;;;;;;13.90;3.25;;;;;;;13.49;100.00;100873.06;5069221;28;20076;-67
2022/10/22 03:06:44;;;;;;;9.98;3.08;;;;;;;13.50;100.00;100866.88;5069419;28;20183;-68
2022/10/22 03:09:09;;;;;;;13.03;3.13;;;;;;;13.48;100.00;100871.34;5069535;28;20482;-68
2022/10/22 03:11:35;;;;;;;11.65;3.45;;;;;;;13.50;100.00;100872.16;5070029;28;20064;-68
2022/10/22 03:14:00;;;;;;;10.98;3.15;;;;;;;13.48;100.00;100876.63;5070530;28;20072;-68
2022/10/22 03:16:25;;;;;;;13.02;3.10;;;;;;;13.48;100.00;100880.13;5068519;28;20073;-69
2022/10/22 03:18:51;;;;;;;14.60;3.42;;;;;;;13.51;100.00;100873.88;5068111;28;20028;-69
2022/10/22 03:21:22;;;;;;;10.68;3.22;;;;;;;13.49;100.00;100881.88;5069374;28;20021;-68
2022/10/22 03:23:47;;;;;;;12.30;3.83;;;;;;;13.56;100.00;100876.31;5068093;28;20028;-68
2022/10/22 03:26:13;;;;;;;13.02;3.53;;;;;;;13.60;100.00;100884.03;5068686;28;20054;-68
2022/10/22 03:28:39;;;;;;;11.63;3.25;;;;;;;13.67;100.00;100878.47;5069418;28;20029;-66
2022/10/22 03:31:05;;;;;;;15.25;5.30;;;;;;;13.75;100.00;100878.97;5050703;28;20033;-65
2022/10/22 03:33:30;;;;;;;11.75;3.67;;;;;;;13.80;100.00;100882.28;5070091;28;20028;-68
2022/10/22 03:35:55;;;;;;;10.57;3.10;;;;;;;13.86;100.00;100878.47;5069097;28;20024;-66
2022/10/22 03:38:21;;;;;;;11.30;3.13;;;;;;;13.89;100.00;100889.78;5069042;28;20044;-67
2022/10/22 03:40:46;;;;;;;15.95;3.22;;;;;;;13.94;100.00;100886.06;5068087;28;20020;-70
2022/10/22 03:43:12;;;;;;;18.58;2.97;;;;;;;14.01;100.00;100888.34;5068805;28;20025;-67
2022/10/22 03:45:37;;;;;;;9.27;2.70;;;;;;;14.03;100.00;100893.56;5067538;28;20070;-68
2022/10/22 03:48:02;;;;;;;15.27;3.13;;;;;;;14.03;100.00;100891.75;5068760;28;20017;-68
2022/10/22 03:50:28;;;;;;;13.35;3.03;;;;;;;14.03;100.00;100888.28;5068770;28;20021;-68
2022/10/22 03:52:53;;;;;;;11.80;2.80;;;;;;;14.05;100.00;100894.34;5068945;28;20024;-71
2022/10/22 03:55:18;;;;;;;10.35;2.85;;;;;;;14.07;100.00;100897.78;5068586;28;20642;-65
2022/10/22 03:57:44;;;;;;;9.32;2.78;;;;;;;14.13;100.00;100891.31;5069091;28;20467;-68
2022/10/22 04:00:09;;;;;;;19.60;3.15;;;;;;;14.10;100.00;100897.63;5068748;28;20108;-69
2022/10/22 04:02:35;;;;;;;11.38;2.95;;;;;;;14.15;100.00;100894.78;5068478;28;20132;-65
2022/10/22 04:05:00;;;;;;;12.68;3.08;;;;;;;14.17;100.00;100898.19;5068896;28;20440;-70
2022/10/22 04:07:25;;;;;;;10.23;2.70;;;;;;;14.20;100.00;100907.78;5067887;28;20374;-70
2022/10/22 04:09:51;;;;;;;8.80;3.35;;;;;;;14.15;100.00;100900.91;5048395;28;20523;-66
2022/10/22 04:12:17;;;;;;;8.98;2.30;;;;;;;14.18;100.00;100904.38;5047314;28;20029;-67
2022/10/22 04:14:42;;;;;;;10.77;2.75;;;;;;;14.19;100.00;100888.38;5047938;28;20029;-68
2022/10/22 04:17:07;;;;;;;10.52;2.63;;;;;;;14.14;100.00;100904.50;5047736;28;20025;-68
2022/10/22 04:19:33;;;;;;;9.43;2.38;;;;;;;14.22;100.00;100900.63;5048711;28;20033;-68
2022/10/22 04:21:58;;;;;;;9.90;2.90;;;;;;;14.19;100.00;100906.94;5048300;28;20133;-67
2022/10/22 04:24:24;;;;;;;12.90;2.80;;;;;;;14.20;100.00;100907.78;5062151;28;20028;-66
2022/10/22 04:26:49;;;;;;;16.73;3.78;;;;;;;14.20;100.00;100911.28;5068123;28;20450;-68
2022/10/22 04:29:15;;;;;;;11.93;2.42;;;;;;;14.20;100.00;100913.06;5067916;28;20427;-68
2022/10/22 04:31:40;;;;;;;17.08;2.92;;;;;;;14.24;100.00;100909.38;5066302;28;20584;-68
2022/10/22 04:34:05;;;;;;;12.63;2.83;;;;;;;14.23;100.00;100923.53;5067946;28;20428;-68
2022/10/22 04:36:31;;;;;;;8.65;2.78;;;;;;;14.15;100.00;100922.13;5068261;28;20524;-69
2022/10/22 04:38:58;;;;;;;9.23;2.72;;;;;;;14.22;100.00;100922.69;5067202;28;20095;-67
2022/10/22 04:41:26;;;;;;;17.25;2.47;;;;;;;14.19;100.00;100921.97;5068399;28;20036;-68
2022/10/22 04:43:53;;;;;;;9.57;2.50;;;;;;;14.19;100.00;100921.97;5068138;28;20048;-65
2022/10/22 04:46:18;;;;;;;11.35;3.03;;;;;;;14.15;100.00;100924.75;5066624;28;20286;-68
2022/10/22 04:48:44;;;;;;;10.95;2.78;;;;;;;14.11;100.00;100923.19;5067978;28;20016;-65
2022/10/22 04:51:13;;;;;;;11.45;3.08;;;;;;;14.09;100.00;100933.00;5067583;28;20505;-68
2022/10/22 04:53:41;;;;;;;11.75;2.63;;;;;;;14.07;100.00;100929.56;5066871;28;20033;-66
2022/10/22 04:56:10;;;;;;;12.93;3.00;;;;;;;14.01;100.00;100930.75;5067591;28;20111;-69
2022/10/22 04:58:36;;;;;;;8.65;2.70;;;;;;;13.95;100.00;100938.97;5066875;28;20473;-68
2022/10/22 05:01:13;;;;;;;12.85;2.92;;;;;;;13.87;100.00;100938.44;5065820;28;20091;-70
2022/10/22 05:03:38;;;;;;;11.15;3.05;;;;;;;13.81;100.00;100949.34;5066987;28;20048;-67
2022/10/22 05:06:04;;;;;;;13.25;3.03;;;;;;;13.75;100.00;100945.16;5065927;28;20413;-68
2022/10/22 05:08:29;;;;;;;7.78;3.15;;;;;;;13.74;100.00;100939.03;5066620;28;20034;-65
2022/10/22 05:10:55;;;;;;;12.45;2.85;;;;;;;13.73;100.00;100947.03;5066818;28;20099;-66
2022/10/22 05:13:20;;;;;;;12.77;3.40;;;;;;;13.70;100.00;100944.53;5065745;28;20046;-69
2022/10/22 05:15:45;;;;;;;10.68;3.10;;;;;;;13.69;100.00;100942.81;5065394;28;20470;-64
2022/10/22 05:18:11;;;;;;;13.07;3.50;;;;;;;13.61;100.00;100940.50;5048659;28;20058;-68
2022/10/22 05:20:40;;;;;;;8.60;3.10;;;;;;;13.59;100.00;100940.59;5046885;28;20025;-68
2022/10/22 05:23:05;;;;;;;17.67;3.25;;;;;;;13.59;100.00;100950.31;5047324;28;20509;-68
2022/10/22 05:25:31;;;;;;;18.02;3.45;;;;;;;13.61;100.00;100951.94;5066110;28;20013;-68
2022/10/22 05:27:56;;;;;;;12.35;3.42;;;;;;;13.59;100.00;100950.31;5066638;28;20025;-67
2022/10/22 05:30:21;;;;;;;18.27;3.20;;;;;;;13.56;100.00;100955.72;5066430;28;20078;-67
2022/10/22 05:32:47;;;;;;;13.30;3.30;;;;;;;13.52;100.00;100953.22;5067228;28;20059;-69
2022/10/22 05:35:12;;;;;;;15.65;3.75;;;;;;;13.54;100.00;100957.59;5067075;28;20025;-67
2022/10/22 05:37:37;;;;;;;10.10;3.38;;;;;;;13.60;100.00;100957.31;5067293;28;20029;-66
2022/10/22 05:40:04;;;;;;;10.60;3.28;;;;;;;13.67;100.00;100957.91;5066434;28;20039;-69
2022/10/22 05:42:32;;;;;;;15.35;3.58;;;;;;;13.74;100.00;100954.03;5067619;28;20056;-67
2022/10/22 05:44:57;;;;;;;9.37;2.80;;;;;;;13.79;100.00;100961.78;5066323;28;20071;-65
2022/10/22 05:47:23;;;;;;;11.13;3.00;;;;;;;13.83;100.00;100961.59;5066019;28;20115;-66
2022/10/22 05:49:49;;;;;;;12.32;3.03;;;;;;;13.86;100.00;100963.22;5067005;28;20029;-68
2022/10/22 05:52:14;;;;;;;14.73;3.10;;;;;;;13.89;100.00;100968.38;5049699;28;20471;-65
2022/10/22 05:54:39;;;;;;;9.88;2.42;;;;;;;13.94;100.00;100973.47;5046761;28;20027;-67
2022/10/22 05:57:05;;;;;;;9.35;2.83;;;;;;;14.01;100.00;100977.56;5047445;28;20122;-67
2022/10/22 05:59:30;;;;;;;14.55;2.92;;;;;;;14.03;100.00;100978.34;5047363;28;20076;-68
2022/10/22 06:01:55;;;;;;;11.63;2.90;;;;;;;14.06;100.00;100980.81;5047734;28;20058;-68
2022/10/22 06:04:21;;;;;;;9.55;2.80;;;;;;;14.07;100.00;100990.53;5060772;28;20070;-65
2022/10/22 06:06:50;;;;;;;15.25;3.55;;;;;;;14.10;100.00;100986.84;5068566;28;20027;-68
2022/10/22 06:09:26;;;;;;;14.02;2.70;;;;;;;14.11;100.00;100993.88;5050562;28;20031;-68
2022/10/22 06:11:51;;;;;;;14.00;2.80;;;;;;;14.08;100.00;100986.94;5048676;28;20032;-68
2022/10/22 06:14:17;;;;;;;11.77;2.72;;;;;;;14.10;100.00;100987.72;5042211;28;20029;-68
2022/10/22 06:16:42;;;;;;;8.32;2.88;;;;;;;14.15;100.00;100990.16;5052376;28;20025;-67
2022/10/22 06:19:13;;;;;;;9.50;2.63;;;;;;;14.19;100.00;101002.34;5052123;28;20499;-67
2022/10/22 06:21:38;;;;;;;9.68;3.00;;;;;;;14.20;100.00;101003.19;5034268;28;20035;-69
2022/10/22 06:24:04;;;;;;;8.60;2.78;;;;;;;14.28;100.00;101003.69;5045030;28;20020;-66
2022/10/22 06:26:30;;;;;;;11.75;3.10;;;;;;;14.31;100.00;101006.19;5061425;28;20091;-69
2022/10/22 06:28:56;;;;;;;15.40;3.33;;;;;;;14.36;100.00;101004.19;5063175;28;20020;-67
2022/10/22 06:31:22;;;;;;;15.07;3.25;;;;;;;14.31;100.00;101010.63;5070338;28;20029;-66
2022/10/22 06:33:47;;;;;;;9.05;2.67;;;;;;;14.36;100.00;101014.78;5071526;28;20043;-71
2022/10/22 06:36:15;;;;;;;9.32;2.67;;;;;;;14.38;100.00;101015.56;5069615;28;20021;-69
2022/10/22 06:38:41;;;;;;;12.32;2.58;;;;;;;14.43;100.00;101010.06;5070440;28;20107;-70
2022/10/22 06:41:12;;;;;;;8.48;2.50;;;;;;;14.50;100.00;101013.25;5070552;28;20417;-67
2022/10/22 06:43:38;;;;;;;14.05;3.08;;;;;;;14.54;100.00;101017.47;5069632;28;20111;-69
2022/10/22 06:46:08;;;;;;;12.68;2.45;;;;;;;14.60;100.00;101032.25;5070860;28;20467;-68
2022/10/22 06:48:36;;;;;;;13.23;2.58;;;;;;;14.52;100.00;101029.97;5071509;28;20027;-67
2022/10/22 06:51:02;;;;;;;15.85;2.88;;;;;;;14.57;100.00;101027.09;5070295;28;20170;-68
2022/10/22 06:53:28;;;;;;;16.23;2.63;;;;;;;14.58;100.00;101036.78;5070827;28;20474;-67
2022/10/22 06:55:54;;;;;;;10.70;2.63;;;;;;;14.62;100.00;101039.22;5053305;28;20266;-68
2022/10/22 06:58:19;;;;;;;14.70;3.00;;;;;;;14.59;100.00;101036.69;5071933;28;20061;-68
2022/10/22 07:00:44;;;;;;;13.18;2.65;;;;;;;14.61;100.00;101041.94;5071069;28;20016;-65
2022/10/22 07:03:14;;;;;;;14.27;2.80;;;;;;;14.62;100.00;101052.47;5070960;28;20049;-68
2022/10/22 07:05:40;;;;;;;11.55;2.25;;;;;;;14.77;100.00;101052.66;5070993;28;20028;-68
2022/10/22 07:08:05;;;;;;;12.07;3.40;;;;;;;14.85;100.00;101057.63;5071104;28;20025;-70
2022/10/22 07:10:31;;;;;;;12.90;2.67;;;;;;;14.94;100.00;101062.50;5070649;28;20078;-66
2022/10/22 07:12:57;;;;;;;11.77;3.10;;;;;;;15.07;100.00;101067.19;5069677;28;20062;-68
2022/10/22 07:15:22;;;;;;;15.48;2.70;;;;;;;15.14;100.00;101058.00;5069967;28;20031;-66
2022/10/22 07:17:47;;;;;;;12.25;2.38;;;;;;;15.23;100.00;101072.59;5069767;28;20107;-68
2022/10/22 07:20:13;;;;;;;12.05;2.50;;;;;;;15.23;100.00;101072.59;5072636;28;20051;-68
2022/10/22 07:22:38;;;;;;;7.32;2.33;;;;;;;15.27;100.00;101076.81;5055045;28;20108;-68
2022/10/22 07:25:04;;;;;;;10.98;2.47;;;;;;;15.26;100.00;101080.41;5072479;28;20471;-63
2022/10/22 07:27:29;;;;;;;10.82;2.30;;;;;;;15.14;100.00;101087.19;5072156;28;20461;-64
2022/10/22 07:29:54;;;;;;;11.18;2.53;;;;;;;15.25;100.00;101084.00;5072542;28;20069;-70
2022/10/22 07:32:20;;;;;;;8.95;2.30;;;;;;;15.24;100.00;101093.75;5069577;28;20027;-67
2022/10/22 07:34:45;;;;;;;12.63;2.33;;;;;;;15.24;100.00;101091.13;5070521;28;20029;-65
2022/10/22 07:37:10;;;;;;;13.55;3.22;;;;;;;15.25;100.00;101098.13;5069750;28;20478;-65
2022/10/22 07:39:36;;;;;;;11.70;2.33;;;;;;;15.26;100.00;101110.47;5066819;28;20021;-68
2022/10/22 07:42:01;;;;;;;10.80;2.40;;;;;;;15.31;100.00;101112.88;5068442;28;20020;-70
2022/10/22 07:44:27;;;;;;;10.35;2.00;;;;;;;15.38;100.00;101114.31;5067018;28;20479;-70
2022/10/22 07:46:52;;;;;;;16.58;2.00;;;;;;;15.49;100.00;101110.25;5066388;28;20059;-68
2022/10/22 07:49:17;;;;;;;10.35;2.28;;;;;;;15.41;100.00;101124.78;5068014;28;20112;-67
2022/10/22 07:51:43;;;;;;;11.55;2.58;;;;;;;15.53;100.00;101112.66;5068168;28;20096;-67
2022/10/22 07:54:08;;;;;;;14.93;2.65;;;;;;;15.61;100.00;101122.91;5067820;28;20048;-70
2022/10/22 07:56:33;;;;;;;11.30;3.08;;;;;;;15.61;100.00;101128.22;5068364;28;20423;-64
2022/10/22 07:58:59;;;;;;;5.85;1.73;;;;;;;15.70;100.00;101123.38;5067687;28;20021;-67
2022/10/22 08:01:24;;;;;;;14.02;2.28;;;;;;;15.79;100.00;101129.09;5065540;28;20471;-70
2022/10/22 08:03:49;;;;;;;11.25;2.15;;;;;;;15.85;100.00;101132.34;5067697;28;20052;-68
2022/10/22 08:06:16;;;;;;;9.52;2.38;;;;;;;15.89;100.00;101133.91;5066010;28;20051;-67
2022/10/22 08:08:42;;;;;;;13.02;2.42;;;;;;;16.01;100.00;101140.41;5066864;28;20483;-69
2022/10/22 08:11:08;;;;;;;15.32;2.30;;;;;;;16.07;100.00;101153.38;5067618;28;20024;-71
2022/10/22 08:13:34;;;;;;;8.48;2.75;;;;;;;16.03;100.00;101150.03;5061408;28;20051;-70
2022/10/22 08:15:59;;;;;;;11.15;2.45;;;;;;;16.10;100.00;101153.22;5064494;28;20033;-66
2022/10/22 08:18:25;;;;;;;12.02;2.58;;;;;;;16.10;100.00;101163.84;5067239;28;20024;-67
2022/10/22 08:20:51;;;;;;;8.70;1.90;;;;;;;16.10;100.00;101158.53;5066018;28;20044;-67
2022/10/22 08:23:16;;;;;;;10.57;2.38;;;;;;;16.16;100.00;101166.19;5067785;28;20127;-66
2022/10/22 08:25:41;;;;;;;13.10;1.88;;;;;;;16.24;100.00;101170.25;5056411;28;20024;-67
2022/10/22 08:28:07;;;;;;;14.10;2.33;;;;;;;16.22;100.00;101172.16;5055712;28;20405;-70
2022/10/22 08:30:32;;;;;;;10.70;2.10;;;;;;;16.10;100.00;101174.50;5057973;28;20382;-69
2022/10/22 08:32:58;;;;;;;8.40;2.00;;;;;;;16.06;100.00;101178.25;5056257;28;20021;-71
2022/10/22 08:35:23;;;;;;;11.43;2.30;;;;;;;15.96;100.00;101172.56;5034896;28;20040;-68
2022/10/22 08:37:49;;;;;;;13.95;2.30;;;;;;;15.81;100.00;101175.97;5058180;28;20037;-71
2022/10/22 08:40:22;;;;;;;12.02;2.42;;;;;;;15.70;100.00;101181.81;5056674;28;20386;-69
2022/10/22 08:43:09;;;;;;;9.23;2.10;;;;;;;15.81;100.00;101189.25;5037381;28;20031;-70
2022/10/22 08:45:52;;;;;;;12.35;2.78;;;;;;;15.99;100.00;101183.03;5063669;28;20085;-71
2022/10/22 08:48:25;;;;;;;9.40;2.13;;;;;;;16.19;100.00;101194.41;5050086;28;20107;-69
2022/10/22 08:50:54;;;;;;;7.90;2.42;;;;;;;16.27;100.00;101202.00;5067656;28;20028;-75
2022/10/22 08:53:21;;;;;;;16.20;2.42;;;;;;;16.33;100.00;101195.50;5067055;28;20028;-73
2022/10/22 08:55:52;;;;;;;9.60;2.45;;;;;;;16.40;100.00;101208.38;5047883;28;20057;-71
2022/10/22 08:58:29;;;;;;;13.05;2.30;;;;;;;16.39;100.00;101217.31;5061972;28;20025;-69
2022/10/22 09:00:58;;;;;;;14.65;2.58;;;;;;;16.31;100.00;101210.69;5065344;28;20125;-71
2022/10/22 09:03:35;;;;;;;9.00;2.05;;;;;;;16.21;100.00;101212.94;5048327;28;20410;-72
2022/10/22 09:06:17;;;;;;;11.70;2.55;;;;;;;16.14;100.00;101213.25;5049648;28;20085;-78
2022/10/22 09:08:44;;;;;;;10.98;2.47;;;;;;;16.21;100.00;101218.25;5047690;28;20033;-73
2022/10/22 09:11:10;;;;;;;13.98;2.65;;;;;;;16.25;100.00;101225.13;5048186;28;20091;-75
2022/10/22 09:13:35;;;;;;;9.25;2.00;;;;;;;16.31;100.00;101227.47;5058860;28;20040;-74
2022/10/22 09:16:14;;;;;;;13.60;2.67;;;;;;;16.33;100.00;101224.75;5067069;28;20023;-75
2022/10/22 09:19:12;;;;;;;14.35;2.17;;;;;;;16.35;100.00;101229.06;5049598;28;20063;-72
2022/10/22 09:21:45;;;;;;;13.98;2.67;;;;;;;16.34;100.00;101240.63;5067459;28;20035;-74
2022/10/22 09:24:13;;;;;;;14.75;2.95;;;;;;;16.39;100.00;101240.38;5060494;28;20029;-69
2022/10/22 09:26:39;;;;;;;11.48;2.45;;;;;;;16.40;100.00;101240.31;5037379;28;20115;-75
2022/10/22 09:29:06;;;;;;;7.95;2.40;;;;;;;16.38;100.00;101254.63;5054079;28;20067;-74
2022/10/22 09:31:32;;;;;;;15.70;2.30;;;;;;;16.40;100.00;101250.06;5055782;28;20021;-73
2022/10/22 09:33:58;;;;;;;11.05;2.33;;;;;;;16.48;100.00;101255.00;5055243;28;20078;-69
2022/10/22 09:36:24;;;;;;;10.85;2.47;;;;;;;16.60;100.00;101257.03;5057980;28;20304;-69
2022/10/22 09:38:51;;;;;;;11.23;2.47;;;;;;;16.65;100.00;101264.75;5047541;28;20017;-71
2022/10/22 09:41:19;;;;;;;8.55;2.30;;;;;;;16.80;100.00;101268.41;5047906;28;20021;-76
2022/10/22 09:43:48;;;;;;;12.00;2.05;;;;;;;16.87;100.00;101259.16;5047588;28;20031;-73
2022/10/22 09:46:16;;;;;;;12.80;2.47;;;;;;;16.80;100.00;101279.06;5064629;28;20017;-68
2022/10/22 09:48:46;;;;;;;14.02;2.42;;;;;;;16.89;100.00;101267.88;5065494;28;20374;-71
2022/10/22 09:51:20;;;;;;;9.45;2.28;;;;;;;17.02;100.00;101268.09;5047101;28;20021;-73
2022/10/22 09:53:47;;;;;;;14.00;2.55;;;;;;;17.23;100.00;101262.56;5033102;28;20010;-69
2022/10/22 09:56:40;;;;;;;11.40;2.08;;;;;;;17.54;100.00;101278.63;5034984;28;20190;-71
2022/10/22 09:59:15;;;;;;;11.60;2.05;;;;;;;17.59;100.00;101273.91;5019255;28;20087;-73
2022/10/22 10:01:41;;;;;;;11.95;2.30;;;;;;;17.70;100.00;101283.09;5044177;28;20056;-71
2022/10/22 10:04:09;;;;;;;9.15;2.13;;;;;;;17.70;100.00;101286.59;5045479;28;20091;-72
2022/10/22 10:06:38;;;;;;;14.63;2.30;;;;;;;17.68;100.00;101276.06;5064429;28;20077;-72
2022/10/22 10:09:19;;;;;;;15.70;2.80;;;;;;;17.73;100.00;101293.56;5066952;28;20021;-68
2022/10/22 10:11:52;;;;;;;11.07;2.75;;;;;;;17.59;100.00;101289.03;5064175;28;20075;-70
2022/10/22 10:14:34;;;;;;;7.65;2.05;;;;;;;17.58;100.00;101295.31;5031134;28;20024;-76
2022/10/22 10:17:20;;;;;;;13.65;2.33;;;;;;;17.63;100.00;101299.41;5048302;28;20116;-67
2022/10/22 10:19:57;;;;;;;11.32;2.30;;;;;;;17.76;100.00;101304.06;5065911;28;20032;-71
2022/10/22 10:22:41;;;;;;;13.13;2.05;;;;;;;17.96;100.00;101313.56;5065398;28;20036;-74
2022/10/22 10:25:28;;;;;;;14.82;2.60;;;;;;;17.95;100.00;101317.19;5065120;28;20031;-67
2022/10/22 10:28:24;;;;;;;15.77;2.83;;;;;;;18.02;100.00;101315.88;5065836;28;20032;-67
2022/10/22 10:31:27;;;;;;;21.73;3.53;;;;;;;17.96;100.00;101323.38;5064258;28;20036;-68
2022/10/22 10:33:55;;;;;;;13.45;2.05;;;;;;;17.94;100.00;101326.97;5002765;28;20065;-75
2022/10/22 10:36:39;;;;;;;11.88;2.60;;;;;;;17.80;100.00;101332.25;5053623;28;20123;-72
2022/10/22 10:39:14;;;;;;;13.20;2.40;;;;;;;17.75;100.00;101331.66;5046271;28;20047;-67
2022/10/22 10:41:46;;;;;;;11.20;2.30;;;;;;;17.73;100.00;101334.38;5065481;28;20024;-71
2022/10/22 10:44:23;;;;;;;15.25;2.50;;;;;;;17.84;100.00;101336.47;5048329;28;20071;-74
2022/10/22 10:47:00;;;;;;;16.83;2.58;;;;;;;18.10;99.79;101338.56;5065066;28;20248;-69
2022/10/22 10:49:29;;;;;;;13.98;3.30;;;;;;;18.11;99.31;101335.84;5065315;28;20182;-72
2022/10/22 10:52:16;;;;;;;17.10;3.38;;;;;;;18.33;97.33;101334.56;5047673;28;20060;-68
2022/10/22 10:55:00;;;;;;;13.27;2.47;;;;;;;18.50;95.47;101346.06;5033853;28;20079;-72
2022/10/22 10:57:39;;;;;;;15.85;2.40;;;;;;;18.62;94.43;101355.13;5057156;28;20521;-80
2022/10/22 11:00:15;;;;;;;14.85;2.47;;;;;;;18.82;92.87;101354.78;5051036;28;20040;-65
2022/10/22 11:02:49;;;;;;;13.43;2.63;;;;;;;18.98;92.25;101355.66;5068110;28;20044;-70
2022/10/22 11:05:45;;;;;;;15.30;2.97;;;;;;;19.13;90.98;101346.75;5050204;28;20016;-72
2022/10/22 11:08:15;;;;;;;14.65;3.00;;;;;;;19.05;89.61;101347.19;5050743;28;20410;-70
2022/10/22 11:11:11;;;;;;;18.50;2.90;;;;;;;19.18;89.43;101359.81;5034203;28;20498;-72
2022/10/22 11:14:09;;;;;;;13.05;2.85;;;;;;;19.44;89.14;101354.63;5051435;28;20487;-69
2022/10/22 11:16:43;;;;;;;14.50;3.22;;;;;;;19.58;88.11;101367.13;5049407;28;20051;-67
2022/10/22 11:19:20;;;;;;;17.85;2.50;;;;;;;19.45;87.93;101359.03;5050851;28;20121;-72
2022/10/22 11:22:09;;;;;;;13.65;2.80;;;;;;;19.01;88.90;101351.00;5064973;28;20115;-69